createdAt,value
2023-05-04T00:01:45.397Z,4.85
2023-05-04T00:04:50.964Z,4.22
2023-05-04T00:07:55.981Z,5.22
2023-05-04T00:11:03.183Z,4.65
2023-05-04T00:14:08.957Z,4.70
2023-05-04T00:17:14.686Z,4.72
2023-05-04T00:20:21.963Z,4.15
2023-05-04T00:23:20.906Z,4.62
2023-05-04T00:26:26.681Z,4.60
2023-05-04T00:29:33.352Z,4.58
2023-05-04T00:32:39.217Z,4.95
2023-05-04T00:35:44.940Z,4.83
2023-05-04T00:39:05.072Z,4.80
2023-05-04T00:42:10.142Z,4.60
2023-05-04T00:45:15.550Z,4.85
2023-05-04T00:48:21.539Z,4.75
2023-05-04T00:51:27.486Z,4.87
2023-05-04T00:54:33.683Z,4.05
2023-05-04T00:57:40.068Z,5.05
2023-05-04T01:00:39.938Z,5.28
2023-05-04T01:03:45.891Z,4.42
2023-05-04T01:07:02.650Z,4.87
2023-05-04T01:10:30.435Z,4.92
2023-05-04T01:13:37.099Z,5.55
2023-05-04T01:16:43.948Z,4.78
2023-05-04T01:19:50.096Z,4.87
2023-05-04T01:22:57.118Z,4.47
2023-05-04T01:26:23.484Z,4.28
2023-05-04T01:29:33.795Z,4.10
2023-05-04T01:32:39.469Z,4.37
2023-05-04T01:35:45.752Z,4.58
2023-05-04T01:38:51.789Z,4.97
2023-05-04T01:41:57.810Z,5.83
2023-05-04T01:45:04.344Z,5.20
2023-05-04T01:48:10.530Z,5.53
2023-05-04T01:51:16.583Z,5.47
2023-05-04T01:54:22.717Z,5.70
2023-05-04T01:57:28.557Z,5.78
2023-05-04T02:00:35.843Z,5.58
2023-05-04T02:03:41.799Z,6.37
2023-05-04T02:06:47.116Z,5.87
2023-05-04T02:09:52.102Z,6.15
2023-05-04T02:12:57.489Z,6.37
2023-05-04T02:16:03.578Z,6.17
2023-05-04T02:19:09.865Z,5.72
2023-05-04T02:22:15.365Z,4.70
2023-05-04T02:25:23.245Z,5.25
2023-05-04T02:28:28.366Z,5.50
2023-05-04T02:31:34.424Z,5.20
2023-05-04T02:34:41.865Z,5.62
2023-05-04T02:37:47.170Z,4.58
2023-05-04T02:40:52.949Z,5.33
2023-05-04T02:43:58.819Z,5.72
2023-05-04T02:47:04.137Z,4.62
2023-05-04T02:50:10.191Z,4.60
2023-05-04T02:53:15.878Z,5.42
2023-05-04T02:56:21.027Z,5.62
2023-05-04T02:59:26.641Z,4.75
2023-05-04T03:02:31.481Z,4.87
2023-05-04T03:05:36.359Z,4.08
2023-05-04T03:08:42.814Z,4.30
2023-05-04T03:11:42.047Z,4.83
2023-05-04T03:14:28.484Z,4.83
2023-05-04T03:17:22.765Z,4.85
2023-05-04T03:20:09.710Z,4.33
2023-05-04T03:23:02.616Z,4.62
2023-05-04T03:25:56.165Z,4.08
2023-05-04T03:29:03.241Z,4.50
2023-05-04T03:32:11.267Z,3.87
2023-05-04T03:35:24.107Z,4.58
2023-05-04T03:38:23.862Z,4.42
2023-05-04T03:41:29.412Z,4.47
2023-05-04T03:44:34.742Z,4.03
2023-05-04T03:47:40.735Z,4.80
2023-05-04T03:50:45.782Z,4.53
2023-05-04T03:53:50.894Z,4.65
2023-05-04T03:56:58.962Z,4.22
2023-05-04T04:00:05.982Z,3.65
2023-05-04T04:03:17.493Z,4.20
2023-05-04T04:06:24.710Z,4.28
2023-05-04T04:09:29.835Z,3.90
2023-05-04T04:12:34.694Z,4.92
2023-05-04T04:15:42.829Z,3.70
2023-05-04T04:18:48.426Z,4.47
2023-05-04T04:21:54.839Z,4.80
2023-05-04T04:25:00.953Z,4.40
2023-05-04T04:28:06.821Z,3.75
2023-05-04T04:31:12.813Z,4.08
2023-05-04T04:34:18.738Z,3.70
2023-05-04T04:37:24.741Z,4.28
2023-05-04T04:40:31.185Z,4.40
2023-05-04T04:43:37.952Z,4.42
2023-05-04T04:46:43.411Z,3.65
2023-05-04T04:49:50.208Z,4.08
2023-05-04T04:52:56.608Z,3.45
2023-05-04T04:56:02.110Z,3.60
2023-05-04T04:59:08.712Z,3.10
2023-05-04T05:02:16.698Z,3.83
2023-05-04T05:05:23.281Z,4.03
2023-05-04T05:08:29.100Z,3.37
2023-05-04T05:11:34.809Z,3.45
2023-05-04T05:14:42.404Z,3.62
2023-05-04T05:17:48.177Z,3.22
2023-05-04T05:20:53.976Z,3.85
2023-05-04T05:23:58.622Z,3.52
2023-05-04T05:27:04.475Z,3.52
2023-05-04T05:30:10.033Z,3.20
2023-05-04T05:33:15.726Z,3.85
2023-05-04T05:36:21.811Z,2.90
2023-05-04T05:39:27.337Z,3.58
2023-05-04T05:42:31.989Z,3.25
2023-05-04T05:45:37.679Z,3.15
2023-05-04T05:48:42.637Z,2.83
2023-05-04T05:51:48.278Z,2.65
2023-05-04T05:54:53.179Z,2.17
2023-05-04T05:58:00.180Z,2.52
2023-05-04T06:01:06.634Z,2.55
2023-05-04T06:04:11.439Z,2.60
2023-05-04T06:07:17.020Z,2.45
2023-05-04T06:10:23.534Z,2.67
2023-05-04T06:13:29.437Z,2.50
2023-05-04T06:16:34.937Z,2.75
2023-05-04T06:19:40.464Z,2.33
2023-05-04T06:22:46.067Z,2.30
2023-05-04T06:25:51.785Z,2.25
2023-05-04T06:28:58.328Z,2.37
2023-05-04T06:32:06.446Z,2.52
2023-05-04T06:35:19.189Z,2.47
2023-05-04T06:38:25.412Z,2.20
2023-05-04T06:41:31.044Z,2.35
2023-05-04T06:44:36.801Z,2.72
2023-05-04T06:47:41.706Z,2.08
2023-05-04T06:50:47.886Z,2.33
2023-05-04T06:53:54.095Z,2.40
2023-05-04T06:57:00.529Z,2.90
2023-05-04T07:00:07.394Z,2.42
2023-05-04T07:03:13.208Z,2.40
2023-05-04T07:06:18.127Z,2.22
2023-05-04T07:09:24.557Z,2.05
2023-05-04T07:12:25.165Z,2.30
2023-05-04T07:15:31.258Z,2.27
2023-05-04T07:18:38.172Z,1.80
2023-05-04T07:21:43.056Z,2.10
2023-05-04T07:24:47.878Z,1.60
2023-05-04T07:27:53.329Z,1.62
2023-05-04T07:31:01.274Z,1.40
2023-05-04T07:34:07.497Z,1.27
2023-05-04T07:37:12.805Z,1.65
2023-05-04T07:40:22.900Z,1.37
2023-05-04T07:43:28.422Z,1.30
2023-05-04T07:46:36.363Z,1.50
2023-05-04T07:49:42.132Z,1.52
2023-05-04T07:52:47.971Z,1.30
2023-05-04T07:55:53.967Z,1.60
2023-05-04T07:59:00.148Z,1.92
2023-05-04T08:02:04.845Z,1.55
2023-05-04T08:05:10.644Z,1.47
2023-05-04T08:08:16.719Z,1.90
2023-05-04T08:11:24.033Z,1.90
2023-05-04T08:14:30.411Z,1.70
2023-05-04T08:17:36.474Z,2.02
2023-05-04T08:20:41.317Z,1.77
2023-05-04T08:23:48.020Z,2.08
2023-05-04T08:27:06.548Z,1.98
2023-05-04T08:30:00.252Z,2.17
2023-05-04T08:33:06.529Z,2.35
2023-05-04T08:36:11.716Z,1.40
2023-05-04T08:39:09.995Z,1.90
2023-05-04T08:41:56.206Z,1.80
2023-05-04T08:44:55.417Z,1.85
2023-05-04T08:48:01.496Z,1.30
2023-05-04T08:51:06.288Z,1.50
2023-05-04T08:54:11.924Z,1.67
2023-05-04T08:57:18.606Z,1.50
2023-05-04T09:00:26.413Z,2.00
2023-05-04T09:03:27.371Z,1.75
2023-05-04T09:06:36.958Z,1.42
2023-05-04T09:09:42.760Z,1.80
2023-05-04T09:12:50.005Z,1.87
2023-05-04T09:15:56.285Z,2.22
2023-05-04T09:19:02.319Z,2.10
2023-05-04T09:22:07.676Z,2.35
2023-05-04T09:25:27.205Z,2.25
2023-05-04T09:28:32.579Z,2.30
2023-05-04T09:31:38.952Z,2.20
2023-05-04T09:34:38.649Z,2.30
2023-05-04T09:37:45.060Z,2.85
2023-05-04T09:40:55.549Z,3.58
2023-05-04T09:44:02.120Z,3.92
2023-05-04T09:47:10.380Z,5.47
2023-05-04T09:50:32.193Z,6.10
2023-05-04T09:53:39.034Z,5.17
2023-05-04T09:57:03.776Z,5.72
2023-05-04T10:00:11.475Z,5.10
2023-05-04T10:03:19.278Z,5.75
2023-05-04T10:06:17.914Z,5.30
2023-05-04T10:09:25.101Z,6.15
2023-05-04T10:12:30.963Z,5.42
2023-05-04T10:15:37.792Z,5.55
2023-05-04T10:18:57.657Z,4.65
2023-05-04T10:22:49.013Z,5.00
2023-05-04T10:26:14.154Z,2.80
2023-05-04T10:29:41.047Z,2.70
2023-05-04T10:32:47.363Z,2.08
2023-05-04T10:35:55.024Z,1.47
2023-05-04T10:39:00.287Z,1.90
2023-05-04T10:42:19.909Z,1.32
2023-05-04T10:45:25.932Z,1.60
2023-05-04T10:48:30.644Z,1.47
2023-05-04T10:51:48.615Z,1.50
2023-05-04T10:54:46.874Z,1.20
2023-05-04T10:58:09.649Z,1.45
2023-05-04T11:01:15.898Z,1.40
2023-05-04T11:04:21.633Z,1.45
2023-05-04T11:07:27.504Z,1.35
2023-05-04T11:10:38.542Z,1.22
2023-05-04T11:13:51.255Z,1.30
2023-05-04T11:16:57.056Z,1.27
2023-05-04T11:20:03.949Z,1.22
2023-05-04T11:23:09.161Z,1.32
2023-05-04T11:26:21.442Z,1.17
2023-05-04T11:29:27.758Z,0.90
2023-05-04T11:32:34.510Z,1.10
2023-05-04T11:35:40.325Z,1.05
2023-05-04T11:38:47.386Z,0.95
2023-05-04T11:41:52.798Z,1.10
2023-05-04T11:44:59.579Z,1.10
2023-05-04T11:48:05.127Z,1.47
2023-05-04T11:51:11.478Z,1.00
2023-05-04T11:54:17.218Z,0.90
2023-05-04T11:57:22.457Z,1.25
2023-05-04T12:00:29.282Z,1.07
2023-05-04T12:03:53.885Z,0.95
2023-05-04T12:06:54.162Z,1.17
2023-05-04T12:10:01.368Z,1.17
2023-05-04T12:13:06.743Z,1.02
2023-05-04T12:16:15.967Z,1.20
2023-05-04T12:19:25.680Z,0.82
2023-05-04T12:22:31.213Z,1.60
2023-05-04T12:25:47.353Z,1.12
2023-05-04T12:28:44.825Z,1.10
2023-05-04T12:31:51.567Z,1.37
2023-05-04T12:34:57.375Z,1.10
2023-05-04T12:38:02.772Z,0.82
2023-05-04T12:41:10.276Z,0.90
2023-05-04T12:44:17.818Z,1.00
2023-05-04T12:47:24.406Z,0.95
2023-05-04T12:50:29.841Z,0.93
2023-05-04T12:53:38.229Z,1.20
2023-05-04T12:56:46.718Z,1.25
2023-05-04T12:59:52.619Z,1.00
2023-05-04T13:02:59.242Z,1.25
2023-05-04T13:06:06.664Z,0.90
2023-05-04T13:09:13.875Z,0.85
2023-05-04T13:12:19.446Z,1.52
2023-05-04T13:15:20.423Z,0.90
2023-05-04T13:18:26.149Z,1.00
2023-05-04T13:21:31.812Z,1.02
2023-05-04T13:24:36.566Z,1.17
2023-05-04T13:27:41.977Z,1.30
2023-05-04T13:30:47.411Z,1.00
2023-05-04T13:33:53.142Z,1.25
2023-05-04T13:36:59.071Z,1.30
2023-05-04T13:40:06.341Z,0.80
2023-05-04T13:43:12.045Z,1.20
2023-05-04T13:46:14.695Z,1.15
2023-05-04T13:49:20.195Z,1.05
2023-05-04T13:55:12.658Z,1.35
2023-05-04T13:58:18.850Z,1.10
2023-05-04T14:01:24.177Z,1.15
2023-05-04T14:04:30.476Z,1.30
2023-05-04T14:07:36.191Z,1.65
2023-05-04T14:10:41.856Z,1.10
2023-05-04T14:13:49.603Z,1.30
2023-05-04T14:16:55.828Z,1.20
2023-05-04T14:20:01.665Z,1.20
2023-05-04T14:23:07.262Z,1.10
2023-05-04T14:26:13.059Z,0.90
2023-05-04T14:29:21.422Z,1.57
2023-05-04T14:32:28.362Z,1.07
2023-05-04T14:35:34.942Z,1.30
2023-05-04T14:38:42.024Z,1.10
2023-05-04T14:41:48.585Z,1.27
2023-05-04T14:44:47.465Z,1.30
2023-05-04T14:47:40.971Z,1.50
2023-05-04T14:50:45.964Z,1.50
2023-05-04T14:53:55.174Z,1.00
2023-05-04T14:57:01.761Z,1.55
2023-05-04T15:00:08.005Z,1.40
2023-05-04T15:03:14.110Z,1.00
2023-05-04T15:06:20.495Z,1.45
2023-05-04T15:09:21.078Z,0.90
2023-05-04T15:12:27.542Z,1.52
2023-05-04T15:15:32.364Z,1.50
2023-05-04T15:18:39.559Z,1.52
2023-05-04T15:21:45.133Z,1.55
2023-05-04T15:24:50.521Z,1.40
2023-05-04T15:27:55.884Z,1.30
2023-05-04T15:31:01.653Z,1.35
2023-05-04T15:34:08.416Z,1.22
2023-05-04T15:37:18.793Z,1.55
2023-05-04T15:40:20.838Z,1.45
2023-05-04T15:43:27.389Z,1.52
2023-05-04T15:46:32.351Z,1.50
2023-05-04T15:49:39.240Z,1.47
2023-05-04T15:52:44.888Z,2.90
2023-05-04T15:55:51.482Z,1.85
2023-05-04T15:58:57.828Z,1.45
2023-05-04T16:02:06.737Z,1.57
2023-05-04T16:05:16.383Z,1.87
2023-05-04T16:08:21.586Z,1.52
2023-05-04T16:11:29.557Z,1.67
2023-05-04T16:14:39.982Z,1.72
2023-05-04T16:17:45.955Z,1.90
2023-05-04T16:20:51.440Z,1.60
2023-05-04T16:23:58.643Z,2.40
2023-05-04T16:27:04.508Z,3.60
2023-05-04T16:30:10.379Z,2.92
2023-05-04T16:33:19.951Z,2.25
2023-05-04T16:36:25.494Z,2.70
2023-05-04T16:39:32.916Z,6.33
2023-05-04T16:42:38.700Z,7.85
2023-05-04T16:45:43.725Z,4.60
2023-05-04T16:48:51.821Z,3.47
2023-05-04T16:51:59.880Z,2.22
2023-05-04T16:55:05.726Z,2.35
2023-05-04T16:58:12.247Z,1.77
2023-05-04T17:01:18.083Z,1.70
2023-05-04T17:04:25.537Z,1.80
2023-05-04T17:07:31.299Z,1.90
2023-05-04T17:10:37.711Z,2.50
2023-05-04T17:13:43.389Z,2.15
2023-05-04T17:16:48.848Z,2.40
2023-05-04T17:19:56.306Z,2.15
2023-05-04T17:23:05.136Z,2.50
2023-05-04T17:26:11.148Z,1.90
2023-05-04T17:29:16.549Z,1.80
2023-05-04T17:32:22.327Z,4.10
2023-05-04T17:35:27.672Z,2.42
2023-05-04T17:38:34.308Z,3.40
2023-05-04T17:41:40.316Z,2.92
2023-05-04T17:44:45.486Z,2.92
2023-05-04T17:47:53.544Z,2.37
2023-05-04T17:50:59.633Z,2.92
2023-05-04T17:54:04.376Z,3.00
2023-05-04T17:57:10.132Z,4.00
2023-05-04T18:00:15.908Z,2.20
2023-05-04T18:03:21.481Z,2.12
2023-05-04T18:06:27.076Z,1.87
2023-05-04T18:09:31.944Z,2.20
2023-05-04T18:12:38.168Z,2.00
2023-05-04T18:15:44.713Z,2.25
2023-05-04T18:18:49.789Z,2.25
2023-05-04T18:21:56.785Z,2.30
2023-05-04T18:25:03.266Z,1.90
2023-05-04T18:28:08.348Z,2.47
2023-05-04T18:31:14.500Z,2.60
2023-05-04T18:34:19.921Z,3.25
2023-05-04T18:37:27.014Z,5.50
2023-05-04T18:40:33.142Z,5.00
2023-05-04T18:43:40.094Z,4.30
2023-05-04T18:46:45.628Z,4.60
2023-05-04T18:49:52.316Z,3.33
2023-05-04T18:52:59.501Z,3.42
2023-05-04T18:56:15.825Z,3.70
2023-05-04T18:59:21.123Z,3.70
2023-05-04T19:02:28.691Z,3.98
2023-05-04T19:05:34.250Z,3.42
2023-05-04T19:08:40.395Z,3.47
2023-05-04T19:11:46.618Z,3.58
2023-05-04T19:14:53.390Z,3.33
2023-05-04T19:17:59.506Z,3.27
2023-05-04T19:21:04.937Z,3.80
2023-05-04T19:24:10.361Z,3.20
2023-05-04T19:27:16.579Z,3.37
2023-05-04T19:30:23.535Z,3.25
2023-05-04T19:33:40.473Z,2.77
2023-05-04T19:36:29.261Z,3.30
2023-05-04T19:39:17.012Z,3.02
2023-05-04T19:42:08.566Z,3.00
2023-05-04T19:45:15.875Z,3.08
2023-05-04T19:48:23.406Z,2.92
2023-05-04T19:51:28.782Z,3.52
2023-05-04T19:54:33.311Z,3.35
2023-05-04T19:57:39.851Z,3.92
2023-05-04T20:00:44.892Z,3.50
2023-05-04T20:03:50.889Z,4.15
2023-05-04T20:06:57.129Z,3.25
2023-05-04T20:10:02.910Z,3.40
2023-05-04T20:13:08.139Z,3.52
2023-05-04T20:16:13.911Z,3.05
2023-05-04T20:19:18.661Z,3.67
2023-05-04T20:22:25.309Z,3.05
2023-05-04T20:25:31.009Z,3.52
2023-05-04T20:28:36.477Z,3.35
2023-05-04T20:31:41.676Z,3.60
2023-05-04T20:34:49.480Z,3.45
2023-05-04T20:37:54.787Z,3.50
2023-05-04T20:41:00.060Z,3.25
2023-05-04T20:44:05.852Z,3.08
2023-05-04T20:47:12.762Z,3.35
2023-05-04T20:50:18.807Z,3.87
2023-05-04T20:53:24.184Z,3.05
2023-05-04T20:56:22.741Z,3.50
2023-05-04T20:59:29.060Z,3.87
2023-05-04T21:02:34.515Z,2.95
2023-05-04T21:05:40.148Z,3.33
2023-05-04T21:08:46.374Z,3.60
2023-05-04T21:11:52.942Z,3.60
2023-05-04T21:14:52.651Z,3.95
2023-05-04T21:17:58.800Z,4.60
2023-05-04T21:21:04.661Z,5.12
2023-05-04T21:24:11.473Z,4.05
2023-05-04T21:27:17.401Z,3.62
2023-05-04T21:30:24.204Z,3.45
2023-05-04T21:33:29.534Z,3.17
2023-05-04T21:36:36.149Z,3.20
2023-05-04T21:39:43.027Z,3.33
2023-05-04T21:42:49.421Z,3.52
2023-05-04T21:45:54.695Z,3.67
2023-05-04T21:49:01.160Z,3.40
2023-05-04T21:51:59.675Z,3.90
2023-05-04T21:54:51.918Z,3.58
2023-05-04T21:57:58.306Z,3.47
2023-05-04T22:01:03.260Z,3.70
2023-05-04T22:04:09.938Z,3.45
2023-05-04T22:07:15.971Z,3.40
2023-05-04T22:10:22.394Z,3.95
2023-05-04T22:13:27.941Z,3.47
2023-05-04T22:16:33.457Z,3.37
2023-05-04T22:19:39.761Z,4.00
2023-05-04T22:22:38.045Z,3.25
2023-05-04T22:25:43.885Z,3.35
2023-05-04T22:28:49.778Z,4.03
2023-05-04T22:31:54.786Z,3.62
2023-05-04T22:35:01.195Z,3.40
2023-05-04T22:38:07.845Z,4.10
2023-05-04T22:41:13.424Z,3.98
2023-05-04T22:44:20.047Z,4.05
2023-05-04T22:47:26.701Z,3.85
2023-05-04T22:50:32.424Z,3.37
2023-05-04T22:53:31.888Z,3.85
2023-05-04T22:56:39.239Z,4.30
2023-05-04T22:59:44.806Z,4.47
2023-05-04T23:02:37.334Z,4.67
2023-05-04T23:05:44.081Z,3.35
2023-05-04T23:08:52.592Z,4.10
2023-05-04T23:12:00.374Z,3.65
2023-05-04T23:15:05.869Z,3.77
2023-05-04T23:18:11.736Z,4.15
2023-05-04T23:21:17.321Z,3.92
2023-05-04T23:24:22.885Z,4.05
2023-05-04T23:27:29.457Z,3.42
2023-05-04T23:30:35.592Z,3.98
2023-05-04T23:33:41.097Z,4.17
2023-05-04T23:36:46.753Z,3.85
2023-05-04T23:39:52.347Z,3.62
2023-05-04T23:42:58.114Z,3.77
2023-05-04T23:46:05.154Z,3.37
2023-05-04T23:49:10.636Z,4.00
2023-05-04T23:52:15.594Z,3.83
2023-05-04T23:55:21.134Z,3.62
2023-05-04T23:58:26.789Z,4.30
